Time;durP1;ratioP1;P1;durP2;ratioP2;P2;SDS_P1;SDS_P2;PMS_P1;PMS_P2;Temp;Humidity;BMP_temperature;BMP_pressure;BME280_temperature;BME280_humidity;BME280_pressure;Samples;Min_cycle;Max_cycle;Signal;HPM_P1;HPM_P2
2023/04/28 00:00:24;;;;;;;;;;;11.10;79.30;;;;;;5046455;28;19909;-68
2023/04/28 00:02:49;;;;;;;;;;;11.10;79.30;;;;;;5028399;28;19924;-67
2023/04/28 00:05:15;;;;;;;;;;;11.10;79.30;;;;;;5046733;28;19952;-68
2023/04/28 00:07:40;;;;;;;;;;;11.10;79.30;;;;;;5046754;28;20390;-67
2023/04/28 00:10:06;;;;;;;;;;;11.00;79.30;;;;;;5046715;28;19916;-67
2023/04/28 00:12:32;;;;;;;;;;;11.10;79.40;;;;;;5028611;28;19909;-67
2023/04/28 00:14:57;;;;;;;;;;;11.00;79.40;;;;;;5046725;28;19981;-67
2023/04/28 00:17:23;;;;;;;;;;;11.00;79.50;;;;;;5046703;28;20300;-67
2023/04/28 00:19:49;;;;;;;;;;;11.00;79.40;;;;;;5046572;28;19913;-67
2023/04/28 00:22:14;;;;;;;;;;;11.00;79.50;;;;;;5046327;28;19924;-67
2023/04/28 00:24:40;;;;;;;;;;;11.00;79.50;;;;;;5046570;28;19917;-67
2023/04/28 00:27:06;;;;;;;;;;;10.90;79.50;;;;;;5046503;28;19916;-67
2023/04/28 00:29:31;;;;;;;;;;;11.00;79.60;;;;;;5046408;28;19973;-67
2023/04/28 00:31:57;;;;;;;;;;;10.90;79.60;;;;;;5046207;28;19913;-67
2023/04/28 00:34:22;;;;;;;;;;;10.90;79.60;;;;;;5046544;28;19912;-68
2023/04/28 00:36:48;;;;;;;;;;;10.90;79.70;;;;;;5046413;28;20347;-67
2023/04/28 00:39:14;;;;;;;;;;;10.90;79.80;;;;;;5046218;28;20330;-67
2023/04/28 00:41:40;;;;;;;;;;;10.90;79.80;;;;;;5046135;28;19916;-67
2023/04/28 00:44:05;;;;;;;;;;;10.90;79.80;;;;;;5045974;28;19922;-67
2023/04/28 00:46:32;;;;;;;;;;;10.90;79.90;;;;;;5046250;28;20570;-67
2023/04/28 00:48:58;;;;;;;;;;;10.80;79.90;;;;;;5046298;28;19955;-67
2023/04/28 00:51:24;;;;;;;;;;;10.90;80.00;;;;;;5046157;28;19944;-68
2023/04/28 00:53:49;;;;;;;;;;;10.80;80.00;;;;;;5030356;28;19959;-67
2023/04/28 00:56:15;;;;;;;;;;;10.80;80.10;;;;;;5045968;28;19913;-67
2023/04/28 00:58:41;;;;;;;;;;;10.80;80.20;;;;;;5045400;28;19909;-67
2023/04/28 01:01:07;;;;;;;;;;;10.80;80.30;;;;;;5044975;28;20432;-67
2023/04/28 01:03:34;;;;;;;;;;;10.80;80.20;;;;;;5045937;28;19917;-68
2023/04/28 01:05:59;;;;;;;;;;;10.80;80.40;;;;;;5046095;28;19913;-67
2023/04/28 01:08:32;;;;;;;;;;;10.80;80.40;;;;;;5045735;28;19963;-67
2023/04/28 01:10:58;;;;;;;;;;;10.70;80.50;;;;;;5045992;28;19952;-68
2023/04/28 01:13:23;;;;;;;;;;;10.70;80.60;;;;;;5027460;28;20349;-67
2023/04/28 01:15:49;;;;;;;;;;;10.70;80.70;;;;;;5045727;28;19913;-68
2023/04/28 01:18:15;;;;;;;;;;;10.70;80.70;;;;;;5045852;28;19908;-68
2023/04/28 01:20:41;;;;;;;;;;;10.70;80.70;;;;;;5045662;28;19912;-67
2023/04/28 01:23:13;;;;;;;;;;;10.70;80.90;;;;;;5045119;28;20500;-67
2023/04/28 01:25:38;;;;;;;;;;;10.70;81.00;;;;;;5027739;28;19948;-67
2023/04/28 01:28:04;;;;;;;;;;;10.70;81.10;;;;;;5045285;28;19960;-67
2023/04/28 01:30:29;;;;;;;;;;;10.70;81.10;;;;;;5045662;28;20319;-67
2023/04/28 01:32:55;;;;;;;;;;;10.70;81.20;;;;;;5034405;28;19913;-69
2023/04/28 01:35:20;;;;;;;;;;;10.70;81.30;;;;;;5025611;28;20350;-67
2023/04/28 01:37:46;;;;;;;;;;;10.60;81.10;;;;;;5025190;28;19909;-67
2023/04/28 01:40:11;;;;;;;;;;;10.60;81.40;;;;;;5027012;28;19909;-67
2023/04/28 01:42:37;;;;;;;;;;;10.60;81.40;;;;;;5044738;28;19937;-67
2023/04/28 01:45:04;;;;;;;;;;;10.60;81.60;;;;;;5027510;28;19923;-67
2023/04/28 01:47:30;;;;;;;;;;;10.60;81.60;;;;;;5045219;28;20629;-67
2023/04/28 01:49:55;;;;;;;;;;;10.60;81.60;;;;;;5045411;28;20456;-67
2023/04/28 01:52:23;;;;;;;;;;;10.50;81.80;;;;;;5027290;28;20000;-67
2023/04/28 01:55:07;;;;;;;;;;;10.60;81.80;;;;;;5100562;27;19911;-67
2023/04/28 01:57:34;;;;;;;;;;;10.60;82.00;;;;;;5049619;27;19917;-67
2023/04/28 02:00:00;;;;;;;;;;;10.50;82.10;;;;;;5044796;28;19965;-67
2023/04/28 02:02:26;;;;;;;;;;;10.50;82.10;;;;;;5044722;28;19923;-68
2023/04/28 02:04:51;;;;;;;;;;;10.50;82.30;;;;;;5045205;28;20436;-67
2023/04/28 02:07:17;;;;;;;;;;;10.50;82.40;;;;;;5027268;28;20024;-67
2023/04/28 02:09:42;;;;;;;;;;;10.50;82.50;;;;;;5045069;28;20035;-67
2023/04/28 02:12:08;;;;;;;;;;;10.50;82.50;;;;;;5045713;28;19919;-67
2023/04/28 02:14:33;;;;;;;;;;;10.50;82.70;;;;;;5048094;28;20716;-67
2023/04/28 02:16:59;;;;;;;;;;;10.50;82.70;;;;;;5048502;28;19913;-67
2023/04/28 02:19:25;;;;;;;;;;;10.50;82.70;;;;;;5048638;28;19947;-67
2023/04/28 02:21:50;;;;;;;;;;;10.50;82.80;;;;;;5048224;28;19928;-67
2023/04/28 02:24:16;;;;;;;;;;;10.40;82.90;;;;;;5048328;28;20353;-67
2023/04/28 02:26:41;;;;;;;;;;;10.40;82.90;;;;;;5048321;28;19909;-67
2023/04/28 02:29:07;;;;;;;;;;;10.40;83.00;;;;;;5048302;28;19920;-67
2023/04/28 02:31:32;;;;;;;;;;;10.40;83.20;;;;;;5048193;28;19920;-67
2023/04/28 02:33:58;;;;;;;;;;;10.40;83.30;;;;;;5048152;28;20540;-67
2023/04/28 02:36:23;;;;;;;;;;;10.40;83.40;;;;;;5048540;28;19920;-67
2023/04/28 02:38:49;;;;;;;;;;;10.40;83.50;;;;;;5048386;28;19954;-67
2023/04/28 02:41:15;;;;;;;;;;;10.40;83.60;;;;;;5047957;28;19909;-67
2023/04/28 02:43:41;;;;;;;;;;;10.40;83.60;;;;;;5047605;28;20312;-67
2023/04/28 02:46:06;;;;;;;;;;;10.40;83.50;;;;;;5030314;28;19920;-67
2023/04/28 02:48:34;;;;;;;;;;;10.40;83.60;;;;;;5048005;28;19913;-67
2023/04/28 02:51:00;;;;;;;;;;;10.40;83.60;;;;;;5048095;28;19954;-67
2023/04/28 02:53:26;;;;;;;;;;;10.40;83.90;;;;;;5047659;28;19913;-67
2023/04/28 02:55:51;;;;;;;;;;;10.30;84.00;;;;;;5047987;28;20347;-67
2023/04/28 02:58:17;;;;;;;;;;;10.40;84.10;;;;;;5047114;28;19913;-67
2023/04/28 03:00:42;;;;;;;;;;;10.30;84.10;;;;;;5047296;28;19916;-67
2023/04/28 03:03:08;;;;;;;;;;;10.30;84.10;;;;;;5047347;28;19913;-67
2023/04/28 03:05:33;;;;;;;;;;;10.30;84.30;;;;;;5047824;28;19966;-67
2023/04/28 03:07:59;;;;;;;;;;;10.30;84.30;;;;;;5047666;28;19940;-67
2023/04/28 03:10:25;;;;;;;;;;;10.30;84.40;;;;;;5048180;27;19920;-67
2023/04/28 03:12:50;;;;;;;;;;;10.30;84.60;;;;;;5047400;28;19912;-67
2023/04/28 03:15:16;;;;;;;;;;;10.30;84.60;;;;;;5029888;28;19913;-67
2023/04/28 03:17:42;;;;;;;;;;;10.30;85.10;;;;;;5047679;28;20395;-68
2023/04/28 03:20:08;;;;;;;;;;;10.30;84.80;;;;;;5047667;28;19913;-67
2023/04/28 03:22:33;;;;;;;;;;;10.30;84.70;;;;;;5047138;28;19920;-67
2023/04/28 03:24:59;;;;;;;;;;;10.30;84.90;;;;;;5028623;28;20372;-67
2023/04/28 03:27:25;;;;;;;;;;;10.30;84.90;;;;;;5029484;28;20381;-67
2023/04/28 03:29:51;;;;;;;;;;;10.30;85.20;;;;;;5045923;28;19999;-67
2023/04/28 03:32:16;;;;;;;;;;;10.30;85.40;;;;;;5047053;28;20329;-67
2023/04/28 03:34:42;;;;;;;;;;;10.20;85.20;;;;;;5047293;28;19913;-67
2023/04/28 03:37:07;;;;;;;;;;;10.30;85.20;;;;;;5047275;28;19919;-67
2023/04/28 03:39:33;;;;;;;;;;;10.20;85.40;;;;;;5047157;28;19962;-67
2023/04/28 03:41:58;;;;;;;;;;;10.30;85.10;;;;;;5046907;28;20001;-67
2023/04/28 03:44:24;;;;;;;;;;;10.20;85.20;;;;;;5046860;28;19955;-67
2023/04/28 03:46:49;;;;;;;;;;;10.20;85.30;;;;;;5029141;28;19921;-67
2023/04/28 03:49:15;;;;;;;;;;;10.20;85.50;;;;;;5047203;27;20429;-67
2023/04/28 03:51:41;;;;;;;;;;;10.30;85.60;;;;;;5047075;28;19912;-67
2023/04/28 03:54:06;;;;;;;;;;;10.20;85.80;;;;;;5046726;28;19948;-67
2023/04/28 03:56:32;;;;;;;;;;;10.20;85.80;;;;;;5046977;28;19943;-67
2023/04/28 03:58:58;;;;;;;;;;;10.20;85.90;;;;;;5046332;28;20008;-67
2023/04/28 04:01:23;;;;;;;;;;;10.20;85.90;;;;;;5046957;28;19919;-67
2023/04/28 04:03:49;;;;;;;;;;;10.20;85.70;;;;;;5041744;28;19948;-67
2023/04/28 04:06:14;;;;;;;;;;;10.20;85.50;;;;;;5047018;28;20524;-67
2023/04/28 04:08:40;;;;;;;;;;;10.20;85.70;;;;;;5046810;28;19981;-67
2023/04/28 04:11:06;;;;;;;;;;;10.20;85.70;;;;;;5042348;28;19920;-67
2023/04/28 04:13:32;;;;;;;;;;;10.20;86.00;;;;;;5035470;28;19938;-67
2023/04/28 04:15:57;;;;;;;;;;;10.20;86.00;;;;;;5044886;27;19917;-67
2023/04/28 04:18:23;;;;;;;;;;;10.20;86.20;;;;;;5046537;28;19917;-67
2023/04/28 04:20:49;;;;;;;;;;;10.20;86.00;;;;;;5046539;27;19935;-67
2023/04/28 04:23:15;;;;;;;;;;;10.20;86.20;;;;;;5046099;28;19924;-67
2023/04/28 04:25:40;;;;;;;;;;;10.20;86.10;;;;;;5046321;28;19913;-67
2023/04/28 04:28:06;;;;;;;;;;;10.20;86.00;;;;;;5046406;28;19912;-67
2023/04/28 04:30:32;;;;;;;;;;;10.20;86.20;;;;;;5046591;28;20623;-67
2023/04/28 04:32:57;;;;;;;;;;;10.20;86.90;;;;;;5011802;28;19933;-67
2023/04/28 04:35:23;;;;;;;;;;;10.20;86.30;;;;;;5041606;28;19913;-67
2023/04/28 04:37:49;;;;;;;;;;;10.20;86.20;;;;;;5026294;28;19918;-67
2023/04/28 04:40:14;;;;;;;;;;;10.20;86.40;;;;;;5027876;28;19909;-67
2023/04/28 04:42:39;;;;;;;;;;;10.20;86.00;;;;;;5046020;28;20277;-67
2023/04/28 04:45:05;;;;;;;;;;;10.20;86.20;;;;;;5045958;28;19927;-67
2023/04/28 04:47:31;;;;;;;;;;;10.20;86.30;;;;;;5028339;28;19959;-67
2023/04/28 04:49:56;;;;;;;;;;;10.20;86.40;;;;;;5045917;28;19952;-67
2023/04/28 04:52:22;;;;;;;;;;;10.20;86.20;;;;;;5045371;28;20445;-67
2023/04/28 04:54:48;;;;;;;;;;;10.20;86.60;;;;;;5045931;28;20352;-67
2023/04/28 04:57:13;;;;;;;;;;;10.20;86.50;;;;;;5040630;28;19913;-67
2023/04/28 04:59:39;;;;;;;;;;;10.20;86.50;;;;;;5038341;28;20408;-67
2023/04/28 05:02:04;;;;;;;;;;;10.20;86.90;;;;;;5028020;28;19919;-67
2023/04/28 05:04:30;;;;;;;;;;;10.20;86.50;;;;;;5027255;28;19913;-67
2023/04/28 05:06:55;;;;;;;;;;;10.20;86.40;;;;;;5045575;28;19923;-67
2023/04/28 05:09:22;;;;;;;;;;;10.20;86.60;;;;;;5045702;28;20345;-67
2023/04/28 05:11:48;;;;;;;;;;;10.20;86.60;;;;;;5027372;28;19920;-67
2023/04/28 05:14:13;;;;;;;;;;;10.20;86.70;;;;;;5027460;28;19940;-67
2023/04/28 05:16:40;;;;;;;;;;;10.20;86.60;;;;;;5045938;28;19916;-67
2023/04/28 05:19:05;;;;;;;;;;;10.20;86.60;;;;;;5045949;28;19912;-67
2023/04/28 05:21:31;;;;;;;;;;;10.20;86.60;;;;;;5045496;28;19921;-67
2023/04/28 05:23:57;;;;;;;;;;;10.20;86.60;;;;;;5045220;28;19969;-67
2023/04/28 05:26:22;;;;;;;;;;;10.20;86.70;;;;;;5045498;28;19913;-67
2023/04/28 05:28:48;;;;;;;;;;;10.20;86.70;;;;;;5045475;28;19913;-67
2023/04/28 05:31:13;;;;;;;;;;;10.20;87.00;;;;;;5027722;28;19917;-67
2023/04/28 05:33:39;;;;;;;;;;;10.20;87.10;;;;;;5045127;28;19973;-67
2023/04/28 05:36:04;;;;;;;;;;;10.20;87.50;;;;;;5045475;28;20341;-67
2023/04/28 05:38:31;;;;;;;;;;;10.30;87.70;;;;;;5045218;28;20571;-67
2023/04/28 05:40:57;;;;;;;;;;;10.20;87.40;;;;;;5027727;28;19909;-68
2023/04/28 05:43:22;;;;;;;;;;;10.30;87.90;;;;;;5044481;28;19974;-67
2023/04/28 05:45:48;;;;;;;;;;;10.30;88.00;;;;;;5045180;28;19919;-67
2023/04/28 05:48:13;;;;;;;;;;;10.30;87.60;;;;;;5044603;28;20007;-67
2023/04/28 05:50:39;;;;;;;;;;;10.30;88.10;;;;;;5045331;28;19909;-67
2023/04/28 05:53:06;;;;;;;;;;;10.30;87.90;;;;;;5044875;28;19955;-67
2023/04/28 05:55:32;;;;;;;;;;;10.30;87.90;;;;;;5045281;28;20028;-67
2023/04/28 05:57:58;;;;;;;;;;;10.30;88.10;;;;;;5044512;28;19917;-68
2023/04/28 06:00:24;;;;;;;;;;;10.30;87.90;;;;;;5044830;28;19917;-67
2023/04/28 06:02:49;;;;;;;;;;;10.30;87.60;;;;;;5044666;28;19920;-67
2023/04/28 06:05:15;;;;;;;;;;;10.40;87.70;;;;;;5045065;28;19948;-68
2023/04/28 06:07:40;;;;;;;;;;;10.40;88.20;;;;;;5045100;28;19973;-67
2023/04/28 06:10:06;;;;;;;;;;;10.40;88.00;;;;;;5044657;28;20340;-67
2023/04/28 06:12:32;;;;;;;;;;;10.40;87.70;;;;;;5060307;28;19953;-67
2023/04/28 06:14:57;;;;;;;;;;;10.40;87.70;;;;;;5027087;28;19913;-67
2023/04/28 06:17:23;;;;;;;;;;;10.40;88.00;;;;;;5045167;28;19913;-67
2023/04/28 06:19:50;;;;;;;;;;;10.40;88.00;;;;;;5045073;28;19913;-67
2023/04/28 06:22:15;;;;;;;;;;;10.40;88.00;;;;;;5044723;28;19931;-67
2023/04/28 06:24:41;;;;;;;;;;;10.40;88.00;;;;;;5044737;28;19912;-67
2023/04/28 06:27:07;;;;;;;;;;;10.40;88.40;;;;;;5044881;28;19928;-67
2023/04/28 06:29:32;;;;;;;;;;;10.40;88.30;;;;;;5044866;28;19913;-67
2023/04/28 06:31:58;;;;;;;;;;;10.40;88.40;;;;;;5044730;28;19913;-67
2023/04/28 06:34:26;;;;;;;;;;;10.40;88.20;;;;;;5045050;28;19935;-67
2023/04/28 06:36:51;;;;;;;;;;;10.40;88.50;;;;;;5044922;28;19913;-67
2023/04/28 06:39:17;;;;;;;;;;;10.40;88.20;;;;;;5026859;28;19946;-67
2023/04/28 06:41:43;;;;;;;;;;;10.50;88.40;;;;;;5044474;28;19937;-67
2023/04/28 06:44:09;;;;;;;;;;;10.50;88.60;;;;;;5044577;28;20007;-67
2023/04/28 06:46:36;;;;;;;;;;;10.50;88.40;;;;;;5044890;28;19912;-67
2023/04/28 06:49:01;;;;;;;;;;;10.50;88.20;;;;;;5044722;28;19919;-67
2023/04/28 06:51:27;;;;;;;;;;;10.50;88.70;;;;;;5044580;28;19913;-67
2023/04/28 06:53:53;;;;;;;;;;;10.60;88.30;;;;;;5044564;28;19917;-67
2023/04/28 06:56:19;;;;;;;;;;;10.60;88.10;;;;;;5044419;28;19919;-67
2023/04/28 06:58:44;;;;;;;;;;;10.70;88.40;;;;;;5038771;28;19991;-67
2023/04/28 07:01:10;;;;;;;;;;;10.70;88.30;;;;;;5047945;28;19920;-67
2023/04/28 07:03:35;;;;;;;;;;;10.80;88.30;;;;;;5029752;28;19973;-67
2023/04/28 07:06:02;;;;;;;;;;;10.80;88.10;;;;;;5048091;28;19913;-67
2023/04/28 07:08:29;;;;;;;;;;;10.90;87.90;;;;;;5047595;28;19938;-67
2023/04/28 07:10:55;;;;;;;;;;;10.90;87.70;;;;;;5047804;28;19909;-67
2023/04/28 07:13:20;;;;;;;;;;;10.90;87.50;;;;;;5047538;28;19913;-67
2023/04/28 07:15:46;;;;;;;;;;;10.90;87.60;;;;;;5047965;28;20421;-67
2023/04/28 07:18:12;;;;;;;;;;;11.00;87.30;;;;;;5047676;28;19917;-67
2023/04/28 07:20:37;;;;;;;;;;;11.00;87.40;;;;;;5047556;28;19916;-67
2023/04/28 07:23:02;;;;;;;;;;;11.10;87.20;;;;;;5047385;28;19912;-67
2023/04/28 07:25:28;;;;;;;;;;;11.20;87.40;;;;;;5047674;28;20012;-67
2023/04/28 07:27:53;;;;;;;;;;;11.20;86.90;;;;;;5047570;28;20374;-67
2023/04/28 07:30:19;;;;;;;;;;;11.30;87.00;;;;;;5047604;28;20343;-67
2023/04/28 07:32:45;;;;;;;;;;;11.20;86.80;;;;;;5029261;28;19960;-67
2023/04/28 07:35:10;;;;;;;;;;;11.30;86.90;;;;;;5047475;28;20011;-67
2023/04/28 07:37:36;;;;;;;;;;;11.30;87.10;;;;;;5047507;28;19920;-67
2023/04/28 07:40:02;;;;;;;;;;;11.30;87.10;;;;;;5047096;28;19916;-67
2023/04/28 07:42:27;;;;;;;;;;;11.40;87.20;;;;;;5047034;28;20652;-67
2023/04/28 07:44:53;;;;;;;;;;;11.40;87.20;;;;;;5047239;28;19913;-67
2023/04/28 07:47:18;;;;;;;;;;;11.40;87.40;;;;;;5047306;28;19943;-67
2023/04/28 07:49:44;;;;;;;;;;;11.50;87.20;;;;;;5047173;28;19916;-67
2023/04/28 07:52:10;;;;;;;;;;;11.50;87.50;;;;;;5046991;28;19953;-67
2023/04/28 07:54:35;;;;;;;;;;;11.50;87.60;;;;;;5047181;28;19920;-67
2023/04/28 07:57:04;;;;;;;;;;;11.60;87.50;;;;;;5025594;28;19913;-67
2023/04/28 07:59:31;;;;;;;;;;;11.70;87.70;;;;;;5044813;28;20023;-67
2023/04/28 08:01:57;;;;;;;;;;;11.80;87.30;;;;;;5046825;28;20003;-67
2023/04/28 08:04:22;;;;;;;;;;;11.80;86.90;;;;;;5047122;28;20326;-67
2023/04/28 08:06:47;;;;;;;;;;;11.90;87.50;;;;;;5046955;28;19961;-67
2023/04/28 08:09:13;;;;;;;;;;;11.90;87.20;;;;;;5046774;28;19913;-67
2023/04/28 08:11:39;;;;;;;;;;;12.00;87.20;;;;;;5046361;28;19913;-68
2023/04/28 08:14:04;;;;;;;;;;;12.00;87.60;;;;;;5046663;28;19917;-67
2023/04/28 08:16:30;;;;;;;;;;;12.10;86.80;;;;;;5046808;28;19923;-67
2023/04/28 08:18:56;;;;;;;;;;;12.10;87.30;;;;;;5046781;28;20325;-67
2023/04/28 08:21:21;;;;;;;;;;;12.10;86.80;;;;;;5028768;28;19924;-67
2023/04/28 08:23:47;;;;;;;;;;;12.20;86.80;;;;;;5028124;28;19924;-67
2023/04/28 08:26:12;;;;;;;;;;;12.20;86.60;;;;;;5046642;28;19995;-67
2023/04/28 08:28:38;;;;;;;;;;;12.30;86.70;;;;;;5046512;28;19912;-67
2023/04/28 08:31:05;;;;;;;;;;;12.30;86.60;;;;;;5046917;28;20311;-67
2023/04/28 08:33:30;;;;;;;;;;;12.40;86.50;;;;;;5046201;28;19920;-67
2023/04/28 08:35:56;;;;;;;;;;;12.40;86.70;;;;;;5046533;28;19917;-67
2023/04/28 08:38:23;;;;;;;;;;;12.50;86.50;;;;;;5045725;28;20289;-67
2023/04/28 08:40:49;;;;;;;;;;;12.60;87.20;;;;;;5028072;28;19913;-67
2023/04/28 08:43:15;;;;;;;;;;;12.60;86.20;;;;;;5045144;28;19916;-67
2023/04/28 08:45:44;;;;;;;;;;;12.70;86.30;;;;;;5045620;28;19921;-67
2023/04/28 08:48:20;;;;;;;;;;;12.70;86.60;;;;;;5028372;28;19912;-68
2023/04/28 08:50:50;;;;;;;;;;;12.80;86.00;;;;;;5046248;28;20000;-68
2023/04/28 08:53:21;;;;;;;;;;;12.90;86.20;;;;;;5045812;28;20660;-68
2023/04/28 08:55:48;;;;;;;;;;;12.90;85.70;;;;;;5046251;28;19913;-67
2023/04/28 08:58:14;;;;;;;;;;;13.00;85.80;;;;;;5045526;28;20341;-68
2023/04/28 09:00:39;;;;;;;;;;;13.00;86.10;;;;;;5027931;28;19908;-68
2023/04/28 09:03:05;;;;;;;;;;;13.10;86.30;;;;;;5038636;28;19909;-67
2023/04/28 09:05:30;;;;;;;;;;;13.10;86.40;;;;;;5044413;28;19916;-68
2023/04/28 09:07:56;;;;;;;;;;;13.20;86.40;;;;;;5045906;28;19917;-67
2023/04/28 09:10:22;;;;;;;;;;;13.20;86.20;;;;;;5045993;28;19981;-67
2023/04/28 09:12:50;;;;;;;;;;;13.30;85.60;;;;;;5045737;28;20414;-67
2023/04/28 09:15:25;;;;;;;;;;;13.30;85.60;;;;;;5046058;28;19933;-68
2023/04/28 09:17:51;;;;;;;;;;;13.40;86.00;;;;;;5045958;28;20665;-67
2023/04/28 09:20:35;;;;;;;;;;;13.40;86.10;;;;;;5045939;28;20490;-67
2023/04/28 09:23:19;;;;;;;;;;;13.50;85.90;;;;;;5044603;28;19924;-68
2023/04/28 09:25:59;;;;;;;;;;;13.40;86.30;;;;;;5045858;28;20380;-67
2023/04/28 09:28:25;;;;;;;;;;;13.50;86.20;;;;;;5045577;28;19962;-67
2023/04/28 09:30:51;;;;;;;;;;;13.50;86.00;;;;;;5045812;28;19913;-67
2023/04/28 09:33:16;;;;;;;;;;;13.50;85.70;;;;;;5045457;28;19956;-67
2023/04/28 09:35:44;;;;;;;;;;;13.50;86.00;;;;;;5045794;28;19917;-67
2023/04/28 09:38:10;;;;;;;;;;;13.60;85.80;;;;;;5045548;28;19920;-67
2023/04/28 09:40:54;;;;;;;;;;;13.60;86.30;;;;;;5045558;28;19913;-67
2023/04/28 09:43:32;;;;;;;;;;;13.60;86.50;;;;;;5045089;28;19919;-67
2023/04/28 09:45:59;;;;;;;;;;;13.60;86.60;;;;;;5045609;28;20373;-67
2023/04/28 09:48:33;;;;;;;;;;;13.70;86.00;;;;;;5045425;28;19940;-67
2023/04/28 09:50:59;;;;;;;;;;;13.70;85.80;;;;;;5045378;28;19913;-67
2023/04/28 09:53:25;;;;;;;;;;;13.70;86.00;;;;;;5045002;28;19920;-67
2023/04/28 09:55:52;;;;;;;;;;;13.80;87.20;;;;;;5045439;28;19940;-67
2023/04/28 09:58:20;;;;;;;;;;;13.80;86.40;;;;;;5044389;28;19920;-67
2023/04/28 10:00:50;;;;;;;;;;;13.80;85.80;;;;;;5045151;28;19924;-67
2023/04/28 10:03:17;;;;;;;;;;;13.80;86.50;;;;;;5044669;28;19916;-67
2023/04/28 10:05:43;;;;;;;;;;;13.80;86.00;;;;;;5044990;28;19917;-67
2023/04/28 10:08:08;;;;;;;;;;;13.80;86.00;;;;;;5045025;28;19916;-67
2023/04/28 10:10:34;;;;;;;;;;;13.90;85.80;;;;;;5043082;28;19909;-67
2023/04/28 10:13:01;;;;;;;;;;;13.90;86.90;;;;;;5035661;27;20100;-67
2023/04/28 10:15:27;;;;;;;;;;;14.00;86.00;;;;;;5034474;28;19927;-67
2023/04/28 10:17:53;;;;;;;;;;;14.00;86.10;;;;;;5045008;28;19912;-67
2023/04/28 10:20:20;;;;;;;;;;;14.10;86.10;;;;;;5044870;28;20369;-67
2023/04/28 10:22:46;;;;;;;;;;;14.10;86.40;;;;;;5044418;28;19932;-67
2023/04/28 10:25:11;;;;;;;;;;;14.20;86.50;;;;;;5044459;28;19916;-67
2023/04/28 10:27:44;;;;;;;;;;;14.20;86.30;;;;;;5026752;28;19921;-67
2023/04/28 10:30:10;;;;;;;;;;;14.20;85.60;;;;;;5044574;28;19936;-67
2023/04/28 10:32:36;;;;;;;;;;;14.30;86.30;;;;;;5034360;28;20273;-67
2023/04/28 10:35:22;;;;;;;;;;;14.30;86.50;;;;;;5028413;28;19914;-67
2023/04/28 10:38:04;;;;;;;;;;;14.40;86.30;;;;;;5028161;28;19921;-67
2023/04/28 10:40:37;;;;;;;;;;;14.40;86.30;;;;;;5031694;28;19912;-67
2023/04/28 10:43:03;;;;;;;;;;;14.50;85.80;;;;;;5047983;28;19960;-67
2023/04/28 10:45:47;;;;;;;;;;;14.50;86.00;;;;;;5048208;28;19917;-67
2023/04/28 10:48:13;;;;;;;;;;;14.50;85.90;;;;;;5047908;28;19935;-67
2023/04/28 10:50:58;;;;;;;;;;;14.60;87.30;;;;;;5048048;28;20377;-68
2023/04/28 10:53:46;;;;;;;;;;;14.60;86.50;;;;;;5047318;28;19920;-67
2023/04/28 10:56:15;;;;;;;;;;;14.60;86.70;;;;;;5047875;28;19909;-67
2023/04/28 10:58:48;;;;;;;;;;;14.60;87.10;;;;;;5046934;28;19912;-67
2023/04/28 11:01:19;;;;;;;;;;;14.60;86.90;;;;;;5047713;28;19917;-68
2023/04/28 11:03:45;;;;;;;;;;;14.50;86.50;;;;;;5047261;28;19919;-67
2023/04/28 11:06:18;;;;;;;;;;;14.50;87.20;;;;;;5047947;28;19916;-67
2023/04/28 11:08:43;;;;;;;;;;;14.50;87.80;;;;;;5047744;28;19913;-67
2023/04/28 11:11:09;;;;;;;;;;;14.50;87.90;;;;;;5029612;28;19912;-68
2023/04/28 11:13:34;;;;;;;;;;;14.50;87.60;;;;;;5047000;28;19909;-67
2023/04/28 11:16:04;;;;;;;;;;;14.50;87.80;;;;;;5047545;28;20000;-68
2023/04/28 11:18:51;;;;;;;;;;;14.50;88.20;;;;;;5047462;28;19919;-67
2023/04/28 11:21:20;;;;;;;;;;;14.40;88.30;;;;;;5029454;28;19920;-67
2023/04/28 11:23:46;;;;;;;;;;;14.40;88.50;;;;;;5046965;28;19968;-67
2023/04/28 11:26:11;;;;;;;;;;;14.40;88.90;;;;;;5047283;28;19955;-68
2023/04/28 11:28:57;;;;;;;;;;;14.30;89.20;;;;;;5047246;28;20052;-68
2023/04/28 11:31:24;;;;;;;;;;;14.30;89.20;;;;;;5046772;28;19956;-67
2023/04/28 11:34:18;;;;;;;;;;;14.30;89.60;;;;;;5045994;28;19967;-67
2023/04/28 11:36:44;;;;;;;;;;;14.30;89.70;;;;;;5029110;28;19913;-67
2023/04/28 11:39:10;;;;;;;;;;;14.30;89.70;;;;;;5027796;28;20276;-67
2023/04/28 11:41:36;;;;;;;;;;;14.30;89.60;;;;;;5046807;28;19916;-67
2023/04/28 11:44:18;;;;;;;;;;;14.30;89.30;;;;;;5046422;28;19913;-67
2023/04/28 11:46:53;;;;;;;;;;;14.30;89.50;;;;;;5046898;28;19958;-67
2023/04/28 11:49:20;;;;;;;;;;;14.30;90.00;;;;;;5047288;28;20425;-68
2023/04/28 11:58:10;;;;;;;;;;;14.30;89.70;;;;;;5034878;27;19951;-67
2023/04/28 12:00:36;;;;;;;;;;;14.30;89.80;;;;;;5046390;28;19921;-67
2023/04/28 12:03:07;;;;;;;;;;;14.30;89.60;;;;;;5047287;28;19912;-67
2023/04/28 12:05:34;;;;;;;;;;;14.30;89.40;;;;;;5066654;28;19969;-67
2023/04/28 12:08:00;;;;;;;;;;;14.20;89.70;;;;;;5066085;28;20023;-67
2023/04/28 12:10:26;;;;;;;;;;;14.30;90.00;;;;;;5046503;28;20319;-67
2023/04/28 12:12:51;;;;;;;;;;;14.30;90.00;;;;;;5046548;28;20615;-67
2023/04/28 12:15:17;;;;;;;;;;;14.30;90.00;;;;;;5046518;28;20540;-67
2023/04/28 12:17:43;;;;;;;;;;;14.30;90.20;;;;;;5028826;28;19913;-67
2023/04/28 12:20:10;;;;;;;;;;;14.40;90.00;;;;;;5046988;28;19912;-67
2023/04/28 12:22:49;;;;;;;;;;;14.30;89.70;;;;;;5046362;28;20516;-67
2023/04/28 12:25:16;;;;;;;;;;;14.40;89.70;;;;;;5046550;28;19913;-67
2023/04/28 12:27:57;;;;;;;;;;;14.50;89.40;;;;;;5025277;28;20458;-67
2023/04/28 12:30:23;;;;;;;;;;;14.50;89.80;;;;;;5026738;28;19997;-67
2023/04/28 12:32:49;;;;;;;;;;;14.50;89.50;;;;;;5026321;28;19920;-67
2023/04/28 12:35:15;;;;;;;;;;;14.50;89.20;;;;;;5026623;28;19910;-67
2023/04/28 12:37:43;;;;;;;;;;;14.60;89.10;;;;;;5026666;28;19914;-67
2023/04/28 12:40:09;;;;;;;;;;;14.60;89.60;;;;;;5027390;28;19918;-67
2023/04/28 12:42:35;;;;;;;;;;;14.60;89.50;;;;;;5046112;28;19909;-67
2023/04/28 12:45:00;;;;;;;;;;;14.60;90.00;;;;;;5046290;28;20463;-67
2023/04/28 12:47:26;;;;;;;;;;;14.60;89.90;;;;;;5046465;28;19912;-67
2023/04/28 12:49:52;;;;;;;;;;;14.60;90.10;;;;;;5046286;28;19913;-67
2023/04/28 12:52:21;;;;;;;;;;;14.60;90.10;;;;;;5027946;28;19912;-67
2023/04/28 12:54:46;;;;;;;;;;;14.70;90.00;;;;;;5046131;28;19917;-67
2023/04/28 12:57:13;;;;;;;;;;;14.70;90.40;;;;;;5040804;28;19924;-68
2023/04/28 12:59:38;;;;;;;;;;;14.70;90.00;;;;;;5027090;28;20557;-68
2023/04/28 13:02:04;;;;;;;;;;;14.70;90.20;;;;;;5045855;28;19913;-68
2023/04/28 13:04:30;;;;;;;;;;;14.80;90.00;;;;;;5029038;28;19924;-68
2023/04/28 13:06:57;;;;;;;;;;;14.80;90.00;;;;;;5045986;28;19913;-68
2023/04/28 13:09:23;;;;;;;;;;;14.90;90.20;;;;;;5045793;28;19913;-68
2023/04/28 13:11:49;;;;;;;;;;;15.00;89.70;;;;;;5045696;28;19913;-67
2023/04/28 13:14:15;;;;;;;;;;;15.20;89.70;;;;;;5045684;28;19969;-68
2023/04/28 13:16:40;;;;;;;;;;;15.40;89.10;;;;;;5046011;28;20311;-68
2023/04/28 13:19:12;;;;;;;;;;;15.50;89.60;;;;;;5045993;28;19913;-68
2023/04/28 13:21:38;;;;;;;;;;;15.50;88.60;;;;;;5028067;28;19921;-68
2023/04/28 13:24:04;;;;;;;;;;;15.50;88.90;;;;;;5045512;28;19917;-68
2023/04/28 13:26:31;;;;;;;;;;;15.60;88.80;;;;;;5045005;28;21569;-68
2023/04/28 13:28:57;;;;;;;;;;;15.60;88.80;;;;;;5045849;28;19977;-68
2023/04/28 13:31:22;;;;;;;;;;;15.70;88.60;;;;;;5045540;28;19921;-68
2023/04/28 13:33:48;;;;;;;;;;;15.80;88.90;;;;;;5045373;28;19920;-68
2023/04/28 13:36:14;;;;;;;;;;;15.90;88.50;;;;;;5045431;28;19958;-68
2023/04/28 13:38:39;;;;;;;;;;;16.00;88.70;;;;;;5045614;28;19916;-68
2023/04/28 13:41:05;;;;;;;;;;;16.10;88.80;;;;;;5045345;28;19933;-68
2023/04/28 13:43:31;;;;;;;;;;;16.20;87.90;;;;;;5045316;28;20011;-68
2023/04/28 13:45:56;;;;;;;;;;;16.30;88.10;;;;;;5045641;28;19912;-68
2023/04/28 13:48:22;;;;;;;;;;;16.30;87.50;;;;;;5045616;28;19913;-68
2023/04/28 13:50:48;;;;;;;;;;;16.40;88.10;;;;;;5045621;28;19920;-68
2023/04/28 13:53:14;;;;;;;;;;;16.50;87.80;;;;;;5045129;28;19957;-68
2023/04/28 13:55:40;;;;;;;;;;;16.50;88.10;;;;;;5045383;28;19909;-68
2023/04/28 13:58:05;;;;;;;;;;;16.70;87.70;;;;;;5039441;28;20007;-68
2023/04/28 14:00:31;;;;;;;;;;;16.80;87.10;;;;;;5044714;28;19999;-68
2023/04/28 14:02:57;;;;;;;;;;;16.90;87.00;;;;;;5045175;28;19909;-68
2023/04/28 14:05:22;;;;;;;;;;;16.90;87.20;;;;;;5027375;28;19917;-68
2023/04/28 14:07:48;;;;;;;;;;;16.90;86.80;;;;;;5026788;28;20542;-68
2023/04/28 14:10:13;;;;;;;;;;;16.90;87.00;;;;;;5044843;28;19913;-68
2023/04/28 14:12:39;;;;;;;;;;;16.90;87.00;;;;;;5048515;28;19909;-68
2023/04/28 14:15:05;;;;;;;;;;;16.90;87.60;;;;;;5048905;28;20281;-68
2023/04/28 14:17:33;;;;;;;;;;;16.80;87.00;;;;;;5048821;27;19913;-68
2023/04/28 14:20:02;;;;;;;;;;;16.80;87.90;;;;;;5048901;28;20752;-68